sensor_id;sensor_type;location;lat;lon;timestamp;pressure;altitude;pressure_sealevel;temperature;humidity
35758;BME280;21879;50.110;18.900;2022-07-17T00:01:59;99381.77;;;14.93;60.30
35758;BME280;21879;50.110;18.900;2022-07-17T00:12:28;99391.14;;;14.76;60.31
35758;BME280;21879;50.110;18.900;2022-07-17T00:22:57;99390.69;;;14.59;60.32
35758;BME280;21879;50.110;18.900;2022-07-17T00:33:26;99390.59;;;14.53;60.48
35758;BME280;21879;50.110;18.900;2022-07-17T00:43:56;99393.99;;;14.45;60.46
35758;BME280;21879;50.110;18.900;2022-07-17T00:54:32;99402.73;;;14.33;61.04
35758;BME280;21879;50.110;18.900;2022-07-17T01:05:03;99404.52;;;14.30;61.08
35758;BME280;21879;50.110;18.900;2022-07-17T01:15:33;99403.53;;;14.26;60.85
35758;BME280;21879;50.110;18.900;2022-07-17T01:26:04;99406.62;;;14.17;60.83
35758;BME280;21879;50.110;18.900;2022-07-17T01:36:33;99411.45;;;14.09;60.56
35758;BME280;21879;50.110;18.900;2022-07-17T01:47:04;99415.73;;;14.01;60.77
35758;BME280;21879;50.110;18.900;2022-07-17T01:57:33;99408.43;;;13.98;60.80
35758;BME280;21879;50.110;18.900;2022-07-17T02:08:02;99404.91;;;13.86;60.65
35758;BME280;21879;50.110;18.900;2022-07-17T02:18:31;99403.65;;;13.72;60.46
35758;BME280;21879;50.110;18.900;2022-07-17T02:29:00;99404.83;;;13.62;60.53
35758;BME280;21879;50.110;18.900;2022-07-17T02:39:29;99411.69;;;13.56;60.53
35758;BME280;21879;50.110;18.900;2022-07-17T02:49:59;99415.95;;;13.50;60.19
35758;BME280;21879;50.110;18.900;2022-07-17T03:00:28;99423.56;;;13.40;60.67
35758;BME280;21879;50.110;18.900;2022-07-17T03:10:57;99425.91;;;13.30;61.10
35758;BME280;21879;50.110;18.900;2022-07-17T03:21:26;99433.11;;;13.26;61.11
35758;BME280;21879;50.110;18.900;2022-07-17T03:31:56;99442.04;;;13.22;61.06
35758;BME280;21879;50.110;18.900;2022-07-17T03:42:25;99455.69;;;13.17;61.30
35758;BME280;21879;50.110;18.900;2022-07-17T03:52:54;99462.54;;;13.11;61.44
35758;BME280;21879;50.110;18.900;2022-07-17T04:03:23;99472.07;;;13.23;61.98
35758;BME280;21879;50.110;18.900;2022-07-17T04:13:52;99472.42;;;13.24;62.48
35758;BME280;21879;50.110;18.900;2022-07-17T04:24:21;99486.66;;;13.35;63.10
35758;BME280;21879;50.110;18.900;2022-07-17T04:34:50;99497.30;;;13.58;63.74
35758;BME280;21879;50.110;18.900;2022-07-17T04:45:19;99500.77;;;14.27;65.07
35758;BME280;21879;50.110;18.900;2022-07-17T04:55:48;99503.65;;;15.25;64.56
35758;BME280;21879;50.110;18.900;2022-07-17T05:06:17;99507.24;;;16.04;63.13
35758;BME280;21879;50.110;18.900;2022-07-17T05:16:46;99508.31;;;16.90;62.13
35758;BME280;21879;50.110;18.900;2022-07-17T05:27:15;99510.26;;;17.71;60.68
35758;BME280;21879;50.110;18.900;2022-07-17T05:37:44;99511.16;;;18.42;59.54
35758;BME280;21879;50.110;18.900;2022-07-17T05:48:13;99517.69;;;19.13;58.13
35758;BME280;21879;50.110;18.900;2022-07-17T05:58:42;99521.58;;;19.84;56.37
35758;BME280;21879;50.110;18.900;2022-07-17T06:09:11;99525.33;;;20.28;55.43
35758;BME280;21879;50.110;18.900;2022-07-17T06:19:41;99525.44;;;20.78;53.69
35758;BME280;21879;50.110;18.900;2022-07-17T06:30:12;99534.55;;;21.17;52.18
35758;BME280;21879;50.110;18.900;2022-07-17T06:40:41;99548.62;;;21.42;51.28
35758;BME280;21879;50.110;18.900;2022-07-17T06:51:10;99553.05;;;21.68;50.47
35758;BME280;21879;50.110;18.900;2022-07-17T07:01:40;99553.84;;;21.91;49.74
35758;BME280;21879;50.110;18.900;2022-07-17T07:12:09;99555.69;;;21.89;48.41
35758;BME280;21879;50.110;18.900;2022-07-17T07:22:38;99554.12;;;21.93;48.34
35758;BME280;21879;50.110;18.900;2022-07-17T07:33:07;99560.39;;;21.88;47.97
35758;BME280;21879;50.110;18.900;2022-07-17T07:43:36;99568.09;;;22.10;47.82
35758;BME280;21879;50.110;18.900;2022-07-17T07:54:05;99574.70;;;22.17;46.89
35758;BME280;21879;50.110;18.900;2022-07-17T08:04:34;99579.69;;;22.08;46.27
35758;BME280;21879;50.110;18.900;2022-07-17T08:15:03;99583.10;;;21.82;46.33
35758;BME280;21879;50.110;18.900;2022-07-17T08:25:33;99578.71;;;21.72;46.33
35758;BME280;21879;50.110;18.900;2022-07-17T08:36:04;99581.41;;;21.67;46.11
35758;BME280;21879;50.110;18.900;2022-07-17T08:46:35;99589.48;;;21.60;45.77
35758;BME280;21879;50.110;18.900;2022-07-17T08:57:05;99592.52;;;21.32;45.76
35758;BME280;21879;50.110;18.900;2022-07-17T09:07:44;99596.89;;;21.38;45.51
35758;BME280;21879;50.110;18.900;2022-07-17T09:18:13;99595.09;;;21.29;44.96
35758;BME280;21879;50.110;18.900;2022-07-17T09:28:49;99601.21;;;21.37;44.27
35758;BME280;21879;50.110;18.900;2022-07-17T09:39:17;99600.14;;;21.41;44.08
35758;BME280;21879;50.110;18.900;2022-07-17T09:49:47;99608.36;;;21.39;43.22
35758;BME280;21879;50.110;18.900;2022-07-17T10:00:18;99597.48;;;21.42;43.76
35758;BME280;21879;50.110;18.900;2022-07-17T10:10:51;99601.44;;;21.44;43.49
35758;BME280;21879;50.110;18.900;2022-07-17T10:21:22;99598.63;;;21.65;43.40
35758;BME280;21879;50.110;18.900;2022-07-17T10:31:52;99608.30;;;21.76;42.98
35758;BME280;21879;50.110;18.900;2022-07-17T10:42:38;99606.10;;;21.82;42.40
35758;BME280;21879;50.110;18.900;2022-07-17T10:53:09;99605.91;;;21.91;42.58
35758;BME280;21879;50.110;18.900;2022-07-17T11:03:40;99608.30;;;22.10;42.25
35758;BME280;21879;50.110;18.900;2022-07-17T11:14:15;99597.04;;;22.12;41.57
35758;BME280;21879;50.110;18.900;2022-07-17T11:24:47;99590.89;;;22.03;40.54
35758;BME280;21879;50.110;18.900;2022-07-17T11:35:21;99587.47;;;21.74;40.60
35758;BME280;21879;50.110;18.900;2022-07-17T11:46:08;99589.88;;;21.72;40.33
35758;BME280;21879;50.110;18.900;2022-07-17T11:56:38;99585.60;;;21.68;40.68
35758;BME280;21879;50.110;18.900;2022-07-17T12:07:07;99583.44;;;21.69;40.03
35758;BME280;21879;50.110;18.900;2022-07-17T12:17:40;99581.05;;;21.76;40.74
35758;BME280;21879;50.110;18.900;2022-07-17T12:28:09;99560.09;;;21.86;39.23
35758;BME280;21879;50.110;18.900;2022-07-17T12:38:38;99553.73;;;21.77;39.86
35758;BME280;21879;50.110;18.900;2022-07-17T12:49:07;99549.67;;;21.81;38.92
35758;BME280;21879;50.110;18.900;2022-07-17T12:59:36;99554.70;;;21.79;38.67
35758;BME280;21879;50.110;18.900;2022-07-17T13:10:07;99552.42;;;21.78;39.50
35758;BME280;21879;50.110;18.900;2022-07-17T13:20:36;99540.80;;;21.82;39.41
35758;BME280;21879;50.110;18.900;2022-07-17T13:31:06;99536.67;;;21.83;39.06
35758;BME280;21879;50.110;18.900;2022-07-17T13:41:38;99533.60;;;21.88;38.23
35758;BME280;21879;50.110;18.900;2022-07-17T13:52:07;99526.60;;;22.07;38.06
35758;BME280;21879;50.110;18.900;2022-07-17T14:02:37;99525.33;;;22.28;37.76
35758;BME280;21879;50.110;18.900;2022-07-17T14:13:07;99522.23;;;22.35;37.73
35758;BME280;21879;50.110;18.900;2022-07-17T14:23:36;99522.96;;;22.26;37.19
35758;BME280;21879;50.110;18.900;2022-07-17T14:34:05;99518.45;;;22.28;37.21
35758;BME280;21879;50.110;18.900;2022-07-17T14:44:34;99510.33;;;22.39;37.33
35758;BME280;21879;50.110;18.900;2022-07-17T14:55:04;99503.80;;;22.38;37.28
35758;BME280;21879;50.110;18.900;2022-07-17T15:05:34;99501.70;;;22.26;37.53
35758;BME280;21879;50.110;18.900;2022-07-17T15:16:04;99499.30;;;22.16;37.83
35758;BME280;21879;50.110;18.900;2022-07-17T15:26:33;99488.84;;;22.08;37.71
35758;BME280;21879;50.110;18.900;2022-07-17T15:37:02;99485.38;;;22.10;38.14
35758;BME280;21879;50.110;18.900;2022-07-17T15:47:31;99484.29;;;22.07;37.65
35758;BME280;21879;50.110;18.900;2022-07-17T15:58:00;99477.46;;;22.05;37.99
35758;BME280;21879;50.110;18.900;2022-07-17T16:08:29;99468.64;;;22.08;38.01
35758;BME280;21879;50.110;18.900;2022-07-17T16:18:58;99461.30;;;22.02;37.61
35758;BME280;21879;50.110;18.900;2022-07-17T16:29:27;99457.30;;;21.96;37.64
35758;BME280;21879;50.110;18.900;2022-07-17T16:39:56;99455.59;;;21.95;38.07
35758;BME280;21879;50.110;18.900;2022-07-17T16:50:25;99450.69;;;21.86;37.98
35758;BME280;21879;50.110;18.900;2022-07-17T17:00:54;99447.50;;;21.82;38.08
35758;BME280;21879;50.110;18.900;2022-07-17T17:11:24;99441.41;;;21.79;38.43
35758;BME280;21879;50.110;18.900;2022-07-17T17:21:53;99447.52;;;21.73;38.72
35758;BME280;21879;50.110;18.900;2022-07-17T17:32:22;99446.92;;;21.75;39.12
35758;BME280;21879;50.110;18.900;2022-07-17T17:42:51;99455.69;;;21.76;39.59
35758;BME280;21879;50.110;18.900;2022-07-17T17:53:21;99460.70;;;21.71;40.34
35758;BME280;21879;50.110;18.900;2022-07-17T18:03:50;99463.02;;;21.62;40.78
35758;BME280;21879;50.110;18.900;2022-07-17T18:14:20;99477.23;;;21.40;42.53
35758;BME280;21879;50.110;18.900;2022-07-17T18:24:49;99477.02;;;21.14;42.60
35758;BME280;21879;50.110;18.900;2022-07-17T18:35:18;99477.70;;;20.97;42.14
35758;BME280;21879;50.110;18.900;2022-07-17T18:45:48;99484.30;;;20.68;43.40
35758;BME280;21879;50.110;18.900;2022-07-17T18:56:17;99503.86;;;20.36;44.57
35758;BME280;21879;50.110;18.900;2022-07-17T19:06:47;99518.13;;;20.02;45.32
35758;BME280;21879;50.110;18.900;2022-07-17T19:17:17;99529.33;;;19.63;46.32
35758;BME280;21879;50.110;18.900;2022-07-17T19:27:46;99542.07;;;19.28;47.03
35758;BME280;21879;50.110;18.900;2022-07-17T19:38:16;99551.48;;;18.92;47.30
35758;BME280;21879;50.110;18.900;2022-07-17T19:48:45;99557.77;;;18.56;47.34
35758;BME280;21879;50.110;18.900;2022-07-17T19:59:16;99557.08;;;18.24;48.42
35758;BME280;21879;50.110;18.900;2022-07-17T20:09:46;99563.09;;;17.97;48.91
35758;BME280;21879;50.110;18.900;2022-07-17T20:20:14;99560.60;;;17.69;49.69
35758;BME280;21879;50.110;18.900;2022-07-17T20:30:43;99561.58;;;17.35;50.16
35758;BME280;21879;50.110;18.900;2022-07-17T20:41:13;99567.05;;;17.19;51.02
35758;BME280;21879;50.110;18.900;2022-07-17T20:51:45;99574.00;;;16.99;51.44
35758;BME280;21879;50.110;18.900;2022-07-17T21:02:14;99576.23;;;16.75;51.73
35758;BME280;21879;50.110;18.900;2022-07-17T21:12:43;99576.15;;;16.52;52.09
35758;BME280;21879;50.110;18.900;2022-07-17T21:23:13;99581.79;;;16.34;52.73
35758;BME280;21879;50.110;18.900;2022-07-17T21:33:41;99588.21;;;16.28;52.84
35758;BME280;21879;50.110;18.900;2022-07-17T21:44:10;99599.14;;;16.06;53.29
35758;BME280;21879;50.110;18.900;2022-07-17T21:54:39;99603.25;;;15.91;53.62
35758;BME280;21879;50.110;18.900;2022-07-17T22:05:12;99615.95;;;15.63;53.86
35758;BME280;21879;50.110;18.900;2022-07-17T22:15:43;99620.06;;;15.57;54.44
35758;BME280;21879;50.110;18.900;2022-07-17T22:26:12;99625.70;;;15.43;54.66
35758;BME280;21879;50.110;18.900;2022-07-17T22:36:41;99622.23;;;15.28;54.77
35758;BME280;21879;50.110;18.900;2022-07-17T22:47:10;99629.80;;;15.12;54.90
35758;BME280;21879;50.110;18.900;2022-07-17T22:57:39;99631.70;;;15.01;54.97
35758;BME280;21879;50.110;18.900;2022-07-17T23:08:10;99634.90;;;14.83;55.39
35758;BME280;21879;50.110;18.900;2022-07-17T23:18:39;99648.79;;;14.60;55.76
35758;BME280;21879;50.110;18.900;2022-07-17T23:29:08;99643.58;;;14.20;56.46
35758;BME280;21879;50.110;18.900;2022-07-17T23:39:37;99642.81;;;14.07;56.36
35758;BME280;21879;50.110;18.900;2022-07-17T23:50:08;99640.58;;;14.05;56.87
